This is the latest recevied weather packets stored in our database for station/object SQ9SMC-13. If no packets are shown the sender has not sent any weather packets the latest 1 day(s).
| Time | Temp. | Humidity | Pressure | Rain* | Wind** | Luminosity | Snow |
|---|---|---|---|---|---|---|---|
| 1777957504 | 13.33° C | 64% | 1013 hPa | 0 mm | 0 m/s | 96 W/m² | - |
| 1777957203 | 13.33° C | 62% | 1013 hPa | 0 mm | 0 m/s | 88 W/m² | - |
| 1777956903 | 13.33° C | 62% | 1013 hPa | 0 mm | 0 m/s | 76 W/m² | - |
| 1777956602 | 12.78° C | 63% | 1012.9 hPa | 0 mm | 0 m/s | 63 W/m² | - |
| 1777956303 | 12.78° C | 62% | 1013 hPa | 0 mm | 0 m/s | 59 W/m² | - |
| 1777956003 | 12.22° C | 63% | 1012.9 hPa | 0 mm | 0 m/s | 53 W/m² | - |
| 1777955702 | 11.67° C | 65% | 1013.1 hPa | 0 mm | 0 m/s | 50 W/m² | - |
| 1777955402 | 11.67° C | 66% | 1013 hPa | 0 mm | 0 m/s | 47 W/m² | - |
| 1777955104 | 11.11° C | 66% | 1012.9 hPa | 0 mm | 0 m/s | 43 W/m² | - |
| 1777954804 | 10° C | 72% | 1013.1 hPa | 0 mm | 0 m/s | 39 W/m² | - |
| 1777954503 | 8.89° C | 74% | 1013.1 hPa | 0 mm | 0 m/s | 35 W/m² | - |
| 1777954203 | 8.33° C | 77% | 1013 hPa | 0 mm | 0 m/s | 32 W/m² | - |
| 1777953903 | 7.78° C | 80% | 1013 hPa | 0 mm | 0 m/s | 27 W/m² | - |
| 1777953603 | 6.67° C | 82% | 1013 hPa | 0 mm | 0 m/s | 23 W/m² | - |
| 1777953302 | 6.67° C | 82% | 1013 hPa | 0 mm | 0 m/s | 19 W/m² | - |
| 1777953003 | 6.67° C | 81% | 1013 hPa | 0 mm | 0 m/s | 17 W/m² | - |
| 1777952704 | 6.67° C | 81% | 1013 hPa | 0 mm | 0 m/s | 14 W/m² | - |
| 1777952404 | 6.67° C | 81% | 1013.1 hPa | 0 mm | 0 m/s | 12 W/m² | - |
| 1777952103 | 6.67° C | 80% | 1013.2 hPa | 0 mm | 0 m/s | 10 W/m² | - |
| 1777951804 | 6.67° C | 80% | 1013 hPa | 0 mm | 0 m/s | 8 W/m² | - |
| 1777951505 | 6.67° C | 79% | 1013.2 hPa | 0 mm | 0 m/s | 6 W/m² | - |
| 1777951205 | 6.67° C | 79% | 1013.1 hPa | 0 mm | 0 m/s | 4 W/m² | - |
| 1777950903 | 7.22° C | 79% | 1013.1 hPa | 0 mm | 0 m/s | 3 W/m² | - |
| 1777950603 | 7.22° C | 78% | 1013 hPa | 0 mm | 0 m/s | 2 W/m² | - |
| 1777950304 | 7.22° C | 78% | 1013.1 hPa | 0 mm | 0 m/s | 1 W/m² | - |
* Rain latest hour (hover to see other rain measurements)
** Current wind speed in m/s (hover to see current wind gust speed)